Fairpartner — PHEC — position and weather

sailwx.info

Track history (hours):
 
Tides and Currents Weather Stations Pressure Air Temp Water Temp Dewpoint Dewpoint Depression Visibility Wind Speed Wind Dir Waves Ship Positions

Fairpartner

Last reported at 2017-Aug-13 11:25 UTC. Time now 2017-Aug-17 08:02 UTC.
Position N 22°34' W 124°50'.

Length 143 m; beam 27 m.

Type: Cargo ship. MMSI: 246466992.

Date/timePositionNaut miles runAvg speedWind from/ knotsBaromVisibWave heightAir tempDewpointWater temp
2017-Aug-13 11:25N 22°34' W 124°50'3816.1
2017-Aug-13 09:04N 22°24' W 124°11'115.9
2017-Aug-13 09:00N 22°23' W 124°09'816.1
2017-Aug-13 08:30N 22°21' W 124°01'2016.4
2017-Aug-13 07:15N 22°15' W 123°40'1215.8
2017-Aug-13 06:30N 22°11' W 123°28'1415.9
2017-Aug-13 05:37N 22°07' W 123°14'1316.0
2017-Aug-13 04:48N 22°03' W 123°00'615.7
2017-Aug-13 04:27N 22°01' W 122°54'  
2017-Aug-05 21:45N 08°52' W 079°31'0 0.0
2017-Aug-05 00:52N 08°52' W 079°31'0 0.0
2017-Aug-04 13:13N 08°52' W 079°31'4 0.9
2017-Aug-04 08:26N 08°56' W 079°34'4 7.5
2017-Aug-04 07:58N 08°59' W 079°35'15 3.1
2017-Aug-04 03:15N 09°07' W 079°48'612.7
2017-Aug-04 02:49N 09°11' W 079°52'413.8
2017-Aug-04 02:30N 09°14' W 079°55'3 5.3
2017-Aug-04 02:00N 09°16' W 079°55'0 0.7
2017-Aug-04 01:30N 09°17' W 079°55'0 0.5
2017-Aug-04 01:00N 09°17' W 079°55'1 1.4
2017-Aug-04 00:31N 09°17' W 079°55'2 3.6
2017-Aug-04 00:00N 09°19' W 079°55'1 3.0
2017-Aug-03 23:31N 09°21' W 079°55'1 2.8
2017-Aug-03 23:00N 09°22' W 079°56'0 0.0
2017-Aug-03 22:31N 09°22' W 079°56'0 0.0
2017-Aug-03 22:01N 09°22' W 079°56'0 0.0
2017-Aug-03 21:30N 09°22' W 079°56'0 0.0
2017-Aug-03 21:00N 09°22' W 079°56'0 0.0
2017-Aug-03 20:30N 09°22' W 079°56'0 0.0
2017-Aug-03 20:00N 09°22' W 079°56'0 0.0
2017-Aug-03 19:30N 09°22' W 079°56'0 0.0
2017-Aug-03 19:00N 09°22' W 079°56'0 0.0
2017-Aug-03 18:31N 09°22' W 079°56'0 0.0
2017-Aug-03 18:00N 09°22' W 079°56'0 0.0
2017-Aug-03 17:30N 09°22' W 079°56'0 0.0
2017-Aug-03 17:00N 09°22' W 079°56'0 0.0
2017-Aug-03 16:07N 09°22' W 079°56'0 0.0
2017-Aug-03 16:00N 09°22' W 079°56'0 0.0
2017-Aug-03 15:30N 09°22' W 079°56'0 0.0
2017-Aug-03 15:00N 09°22' W 079°56'3 2.5
2017-Aug-03 14:00N 09°24' W 079°55'3 5.6
2017-Aug-03 13:26N 09°25' W 079°58'0 0.0
2017-Aug-03 12:59N 09°25' W 079°58'0 0.0
2017-Aug-03 12:29N 09°25' W 079°58'0 0.0
2017-Aug-03 11:59N 09°25' W 079°58'0 0.1
2017-Aug-03 11:29N 09°25' W 079°58'  
Track history (hours):
 
Tides and Currents Weather Stations Pressure Air Temp Water Temp Dewpoint Dewpoint Depression Visibility Wind Speed Wind Dir Waves Ship Positions

Fairpartner

Last reported at 2017-Aug-13 11:25 UTC. Time now 2017-Aug-17 08:02 UTC.
Position N 22°34' W 124°50'.

Length 143 m; beam 27 m.

Type: Cargo ship. MMSI: 246466992.

Date/timePositionNaut miles runAvg speedWind from/ knotsBaromVisibWave heightAir tempDewpointWater temp
2017-Aug-13 11:25N 22°34' W 124°50'3816.1
2017-Aug-13 09:04N 22°24' W 124°11'115.9
2017-Aug-13 09:00N 22°23' W 124°09'816.1
2017-Aug-13 08:30N 22°21' W 124°01'2016.4
2017-Aug-13 07:15N 22°15' W 123°40'1215.8
2017-Aug-13 06:30N 22°11' W 123°28'1415.9
2017-Aug-13 05:37N 22°07' W 123°14'1316.0
2017-Aug-13 04:48N 22°03' W 123°00'615.7
2017-Aug-13 04:27N 22°01' W 122°54'  
2017-Aug-05 21:45N 08°52' W 079°31'0 0.0
2017-Aug-05 00:52N 08°52' W 079°31'0 0.0
2017-Aug-04 13:13N 08°52' W 079°31'4 0.9
2017-Aug-04 08:26N 08°56' W 079°34'4 7.5
2017-Aug-04 07:58N 08°59' W 079°35'15 3.1
2017-Aug-04 03:15N 09°07' W 079°48'612.7
2017-Aug-04 02:49N 09°11' W 079°52'413.8
2017-Aug-04 02:30N 09°14' W 079°55'3 5.3
2017-Aug-04 02:00N 09°16' W 079°55'0 0.7
2017-Aug-04 01:30N 09°17' W 079°55'0 0.5
2017-Aug-04 01:00N 09°17' W 079°55'1 1.4
2017-Aug-04 00:31N 09°17' W 079°55'2 3.6
2017-Aug-04 00:00N 09°19' W 079°55'1 3.0
2017-Aug-03 23:31N 09°21' W 079°55'1 2.8
2017-Aug-03 23:00N 09°22' W 079°56'0 0.0
2017-Aug-03 22:31N 09°22' W 079°56'0 0.0
2017-Aug-03 22:01N 09°22' W 079°56'0 0.0
2017-Aug-03 21:30N 09°22' W 079°56'0 0.0
2017-Aug-03 21:00N 09°22' W 079°56'0 0.0
2017-Aug-03 20:30N 09°22' W 079°56'0 0.0
2017-Aug-03 20:00N 09°22' W 079°56'0 0.0
2017-Aug-03 19:30N 09°22' W 079°56'0 0.0
2017-Aug-03 19:00N 09°22' W 079°56'0 0.0
2017-Aug-03 18:31N 09°22' W 079°56'0 0.0
2017-Aug-03 18:00N 09°22' W 079°56'0 0.0
2017-Aug-03 17:30N 09°22' W 079°56'0 0.0
2017-Aug-03 17:00N 09°22' W 079°56'0 0.0
2017-Aug-03 16:07N 09°22' W 079°56'0 0.0
2017-Aug-03 16:00N 09°22' W 079°56'0 0.0
2017-Aug-03 15:30N 09°22' W 079°56'0 0.0
2017-Aug-03 15:00N 09°22' W 079°56'3 2.5
2017-Aug-03 14:00N 09°24' W 079°55'3 5.6
2017-Aug-03 13:26N 09°25' W 079°58'0 0.0
2017-Aug-03 12:59N 09°25' W 079°58'0 0.0
2017-Aug-03 12:29N 09°25' W 079°58'0 0.0
2017-Aug-03 11:59N 09°25' W 079°58'0 0.1
2017-Aug-03 11:29N 09°25' W 079°58'  

Dump ship's entire track history